sensor_id;sensor_type;location;lat;lon;timestamp;P1;durP1;ratioP1;P2;durP2;ratioP2
12177;SDS011;6152;48.728;9.256;2022-08-01T00:01:11;1.27;;;1.15;;
12177;SDS011;6152;48.728;9.256;2022-08-01T00:03:38;1.90;;;1.23;;
12177;SDS011;6152;48.728;9.256;2022-08-01T00:06:04;1.35;;;1.25;;
12177;SDS011;6152;48.728;9.256;2022-08-01T00:08:30;1.08;;;1.08;;
12177;SDS011;6152;48.728;9.256;2022-08-01T00:10:57;1.30;;;1.20;;
12177;SDS011;6152;48.728;9.256;2022-08-01T00:13:23;1.02;;;1.02;;
12177;SDS011;6152;48.728;9.256;2022-08-01T00:15:49;1.70;;;1.60;;
12177;SDS011;6152;48.728;9.256;2022-08-01T00:18:15;1.63;;;1.52;;
12177;SDS011;6152;48.728;9.256;2022-08-01T00:20:41;2.67;;;1.73;;
12177;SDS011;6152;48.728;9.256;2022-08-01T00:23:07;2.63;;;1.60;;
12177;SDS011;6152;48.728;9.256;2022-08-01T00:25:33;1.70;;;1.60;;
12177;SDS011;6152;48.728;9.256;2022-08-01T00:27:59;3.50;;;1.48;;
12177;SDS011;6152;48.728;9.256;2022-08-01T00:30:26;2.75;;;2.00;;
12177;SDS011;6152;48.728;9.256;2022-08-01T00:32:52;2.35;;;2.15;;
12177;SDS011;6152;48.728;9.256;2022-08-01T00:35:18;4.05;;;3.38;;
12177;SDS011;6152;48.728;9.256;2022-08-01T00:37:44;5.75;;;4.97;;
12177;SDS011;6152;48.728;9.256;2022-08-01T00:40:10;6.68;;;5.70;;
12177;SDS011;6152;48.728;9.256;2022-08-01T00:42:37;6.53;;;5.13;;
12177;SDS011;6152;48.728;9.256;2022-08-01T00:45:03;7.03;;;5.22;;
12177;SDS011;6152;48.728;9.256;2022-08-01T00:47:29;4.03;;;3.22;;
12177;SDS011;6152;48.728;9.256;2022-08-01T00:49:56;2.55;;;2.35;;
12177;SDS011;6152;48.728;9.256;2022-08-01T00:52:22;2.47;;;1.80;;
12177;SDS011;6152;48.728;9.256;2022-08-01T00:54:48;1.60;;;1.45;;
12177;SDS011;6152;48.728;9.256;2022-08-01T00:57:15;1.90;;;1.50;;
12177;SDS011;6152;48.728;9.256;2022-08-01T00:59:41;1.60;;;1.45;;
12177;SDS011;6152;48.728;9.256;2022-08-01T01:02:07;2.05;;;1.70;;
12177;SDS011;6152;48.728;9.256;2022-08-01T01:04:33;1.30;;;1.20;;
12177;SDS011;6152;48.728;9.256;2022-08-01T01:07:04;1.45;;;1.35;;
12177;SDS011;6152;48.728;9.256;2022-08-01T01:12:27;3.83;;;1.60;;
12177;SDS011;6152;48.728;9.256;2022-08-01T01:15:06;3.45;;;1.50;;
12177;SDS011;6152;48.728;9.256;2022-08-01T01:20:24;3.83;;;1.48;;
12177;SDS011;6152;48.728;9.256;2022-08-01T01:31:43;2.63;;;1.67;;
12177;SDS011;6152;48.728;9.256;2022-08-01T01:34:17;2.10;;;1.77;;
12177;SDS011;6152;48.728;9.256;2022-08-01T01:36:47;1.52;;;1.42;;
12177;SDS011;6152;48.728;9.256;2022-08-01T01:39:15;2.20;;;1.67;;
12177;SDS011;6152;48.728;9.256;2022-08-01T01:41:43;2.80;;;1.60;;
12177;SDS011;6152;48.728;9.256;2022-08-01T01:44:11;1.73;;;1.63;;
12177;SDS011;6152;48.728;9.256;2022-08-01T01:46:40;2.13;;;1.58;;
12177;SDS011;6152;48.728;9.256;2022-08-01T01:49:08;2.15;;;1.80;;
12177;SDS011;6152;48.728;9.256;2022-08-01T01:51:35;2.65;;;1.92;;
12177;SDS011;6152;48.728;9.256;2022-08-01T01:54:04;2.92;;;1.98;;
12177;SDS011;6152;48.728;9.256;2022-08-01T01:56:32;2.35;;;2.03;;
12177;SDS011;6152;48.728;9.256;2022-08-01T01:59:00;2.70;;;1.80;;
12177;SDS011;6152;48.728;9.256;2022-08-01T02:01:29;1.60;;;1.50;;
12177;SDS011;6152;48.728;9.256;2022-08-01T02:03:58;2.15;;;1.73;;
12177;SDS011;6152;48.728;9.256;2022-08-01T02:06:27;1.73;;;1.63;;
12177;SDS011;6152;48.728;9.256;2022-08-01T02:08:54;2.10;;;1.73;;
12177;SDS011;6152;48.728;9.256;2022-08-01T02:11:21;2.45;;;1.58;;
12177;SDS011;6152;48.728;9.256;2022-08-01T02:13:49;1.88;;;1.70;;
12177;SDS011;6152;48.728;9.256;2022-08-01T02:16:25;1.83;;;1.63;;
12177;SDS011;6152;48.728;9.256;2022-08-01T02:18:53;2.28;;;1.60;;
12177;SDS011;6152;48.728;9.256;2022-08-01T02:21:22;1.73;;;1.63;;
12177;SDS011;6152;48.728;9.256;2022-08-01T02:23:54;1.73;;;1.63;;
12177;SDS011;6152;48.728;9.256;2022-08-01T02:26:28;1.90;;;1.80;;
12177;SDS011;6152;48.728;9.256;2022-08-01T02:28:59;2.00;;;1.58;;
12177;SDS011;6152;48.728;9.256;2022-08-01T02:31:30;1.75;;;1.65;;
12177;SDS011;6152;48.728;9.256;2022-08-01T02:34:01;2.80;;;1.90;;
12177;SDS011;6152;48.728;9.256;2022-08-01T02:36:32;3.33;;;1.60;;
12177;SDS011;6152;48.728;9.256;2022-08-01T02:39:03;2.58;;;1.80;;
12177;SDS011;6152;48.728;9.256;2022-08-01T02:41:33;2.63;;;1.90;;
12177;SDS011;6152;48.728;9.256;2022-08-01T02:44:05;2.15;;;2.05;;
12177;SDS011;6152;48.728;9.256;2022-08-01T02:46:35;2.25;;;1.73;;
12177;SDS011;6152;48.728;9.256;2022-08-01T02:49:05;1.98;;;1.80;;
12177;SDS011;6152;48.728;9.256;2022-08-01T02:51:34;2.42;;;2.03;;
12177;SDS011;6152;48.728;9.256;2022-08-01T02:54:02;1.65;;;1.55;;
12177;SDS011;6152;48.728;9.256;2022-08-01T02:56:31;2.70;;;1.77;;
12177;SDS011;6152;48.728;9.256;2022-08-01T02:59:03;2.15;;;1.90;;
12177;SDS011;6152;48.728;9.256;2022-08-01T03:01:32;1.98;;;1.88;;
12177;SDS011;6152;48.728;9.256;2022-08-01T03:03:59;1.73;;;1.63;;
12177;SDS011;6152;48.728;9.256;2022-08-01T03:06:27;2.00;;;1.90;;
12177;SDS011;6152;48.728;9.256;2022-08-01T03:08:54;2.65;;;1.95;;
12177;SDS011;6152;48.728;9.256;2022-08-01T03:11:22;2.20;;;2.00;;
12177;SDS011;6152;48.728;9.256;2022-08-01T03:13:51;1.77;;;1.67;;
12177;SDS011;6152;48.728;9.256;2022-08-01T03:16:18;3.10;;;2.17;;
12177;SDS011;6152;48.728;9.256;2022-08-01T03:18:48;2.25;;;1.85;;
12177;SDS011;6152;48.728;9.256;2022-08-01T03:21:17;4.60;;;1.90;;
12177;SDS011;6152;48.728;9.256;2022-08-01T03:23:49;2.33;;;2.10;;
12177;SDS011;6152;48.728;9.256;2022-08-01T03:26:21;2.40;;;2.17;;
12177;SDS011;6152;48.728;9.256;2022-08-01T03:28:55;2.30;;;2.10;;
12177;SDS011;6152;48.728;9.256;2022-08-01T03:31:26;2.35;;;2.13;;
12177;SDS011;6152;48.728;9.256;2022-08-01T03:33:55;3.08;;;2.03;;
12177;SDS011;6152;48.728;9.256;2022-08-01T03:36:23;1.83;;;1.73;;
12177;SDS011;6152;48.728;9.256;2022-08-01T03:38:54;2.28;;;2.08;;
12177;SDS011;6152;48.728;9.256;2022-08-01T03:41:24;2.13;;;2.00;;
12177;SDS011;6152;48.728;9.256;2022-08-01T03:44:00;2.08;;;1.98;;
12177;SDS011;6152;48.728;9.256;2022-08-01T03:46:33;1.80;;;1.70;;
12177;SDS011;6152;48.728;9.256;2022-08-01T03:49:10;2.10;;;1.98;;
12177;SDS011;6152;48.728;9.256;2022-08-01T03:51:41;1.88;;;1.77;;
12177;SDS011;6152;48.728;9.256;2022-08-01T03:54:10;2.50;;;1.90;;
12177;SDS011;6152;48.728;9.256;2022-08-01T03:56:38;2.35;;;2.05;;
12177;SDS011;6152;48.728;9.256;2022-08-01T03:59:06;1.90;;;1.80;;
12177;SDS011;6152;48.728;9.256;2022-08-01T04:01:33;2.00;;;1.90;;
12177;SDS011;6152;48.728;9.256;2022-08-01T04:04:01;2.00;;;1.80;;
12177;SDS011;6152;48.728;9.256;2022-08-01T04:06:30;2.67;;;1.80;;
12177;SDS011;6152;48.728;9.256;2022-08-01T04:08:56;2.28;;;2.10;;
12177;SDS011;6152;48.728;9.256;2022-08-01T04:11:25;2.08;;;1.92;;
12177;SDS011;6152;48.728;9.256;2022-08-01T04:13:53;1.95;;;1.80;;
12177;SDS011;6152;48.728;9.256;2022-08-01T04:16:20;2.63;;;1.90;;
12177;SDS011;6152;48.728;9.256;2022-08-01T04:18:47;1.77;;;1.60;;
12177;SDS011;6152;48.728;9.256;2022-08-01T04:21:14;2.05;;;1.77;;
12177;SDS011;6152;48.728;9.256;2022-08-01T04:23:43;1.60;;;1.50;;
12177;SDS011;6152;48.728;9.256;2022-08-01T04:26:11;2.25;;;1.73;;
12177;SDS011;6152;48.728;9.256;2022-08-01T04:28:39;1.85;;;1.60;;
12177;SDS011;6152;48.728;9.256;2022-08-01T04:31:08;1.60;;;1.50;;
12177;SDS011;6152;48.728;9.256;2022-08-01T04:33:36;1.83;;;1.65;;
12177;SDS011;6152;48.728;9.256;2022-08-01T04:36:07;1.83;;;1.60;;
12177;SDS011;6152;48.728;9.256;2022-08-01T04:38:37;1.63;;;1.52;;
12177;SDS011;6152;48.728;9.256;2022-08-01T04:41:06;1.23;;;1.20;;
12177;SDS011;6152;48.728;9.256;2022-08-01T04:43:34;1.58;;;1.40;;
12177;SDS011;6152;48.728;9.256;2022-08-01T04:46:01;1.85;;;1.52;;
12177;SDS011;6152;48.728;9.256;2022-08-01T04:48:28;1.65;;;1.55;;
12177;SDS011;6152;48.728;9.256;2022-08-01T04:50:56;1.77;;;1.67;;
12177;SDS011;6152;48.728;9.256;2022-08-01T04:53:22;2.38;;;1.30;;
12177;SDS011;6152;48.728;9.256;2022-08-01T04:55:48;2.13;;;1.25;;
12177;SDS011;6152;48.728;9.256;2022-08-01T04:58:15;2.22;;;1.45;;
12177;SDS011;6152;48.728;9.256;2022-08-01T05:00:41;1.27;;;1.27;;
12177;SDS011;6152;48.728;9.256;2022-08-01T05:03:07;1.95;;;1.40;;
12177;SDS011;6152;48.728;9.256;2022-08-01T05:05:33;3.38;;;1.50;;
12177;SDS011;6152;48.728;9.256;2022-08-01T05:08:00;1.60;;;1.50;;
12177;SDS011;6152;48.728;9.256;2022-08-01T05:10:26;3.58;;;1.33;;
12177;SDS011;6152;48.728;9.256;2022-08-01T05:12:52;1.55;;;1.30;;
12177;SDS011;6152;48.728;9.256;2022-08-01T05:15:19;1.50;;;1.40;;
12177;SDS011;6152;48.728;9.256;2022-08-01T05:17:46;2.67;;;1.30;;
12177;SDS011;6152;48.728;9.256;2022-08-01T05:20:12;2.72;;;1.35;;
12177;SDS011;6152;48.728;9.256;2022-08-01T05:22:38;2.05;;;1.50;;
12177;SDS011;6152;48.728;9.256;2022-08-01T05:25:05;2.78;;;1.55;;
12177;SDS011;6152;48.728;9.256;2022-08-01T05:27:31;2.35;;;2.05;;
12177;SDS011;6152;48.728;9.256;2022-08-01T05:30:03;4.95;;;4.30;;
12177;SDS011;6152;48.728;9.256;2022-08-01T05:32:29;7.40;;;5.25;;
12177;SDS011;6152;48.728;9.256;2022-08-01T05:34:56;8.05;;;4.70;;
12177;SDS011;6152;48.728;9.256;2022-08-01T05:37:22;11.07;;;5.53;;
12177;SDS011;6152;48.728;9.256;2022-08-01T05:39:49;9.85;;;5.30;;
12177;SDS011;6152;48.728;9.256;2022-08-01T05:42:15;7.03;;;3.55;;
12177;SDS011;6152;48.728;9.256;2022-08-01T05:44:41;3.53;;;2.75;;
12177;SDS011;6152;48.728;9.256;2022-08-01T05:47:07;3.03;;;1.55;;
12177;SDS011;6152;48.728;9.256;2022-08-01T05:49:33;1.60;;;1.50;;
12177;SDS011;6152;48.728;9.256;2022-08-01T05:51:59;3.97;;;3.05;;
12177;SDS011;6152;48.728;9.256;2022-08-01T05:54:26;1.77;;;1.10;;
12177;SDS011;6152;48.728;9.256;2022-08-01T05:56:52;2.03;;;1.20;;
12177;SDS011;6152;48.728;9.256;2022-08-01T05:59:23;2.65;;;1.20;;
12177;SDS011;6152;48.728;9.256;2022-08-01T06:01:49;1.80;;;1.20;;
12177;SDS011;6152;48.728;9.256;2022-08-01T06:04:15;1.40;;;1.30;;
12177;SDS011;6152;48.728;9.256;2022-08-01T06:06:41;1.40;;;1.23;;
12177;SDS011;6152;48.728;9.256;2022-08-01T06:09:07;1.20;;;1.10;;
12177;SDS011;6152;48.728;9.256;2022-08-01T06:11:33;2.13;;;0.98;;
12177;SDS011;6152;48.728;9.256;2022-08-01T06:13:59;2.67;;;1.15;;
12177;SDS011;6152;48.728;9.256;2022-08-01T06:16:25;1.90;;;1.10;;
12177;SDS011;6152;48.728;9.256;2022-08-01T06:18:52;1.27;;;1.00;;
12177;SDS011;6152;48.728;9.256;2022-08-01T06:21:18;1.58;;;1.40;;
12177;SDS011;6152;48.728;9.256;2022-08-01T06:23:44;1.05;;;0.95;;
12177;SDS011;6152;48.728;9.256;2022-08-01T06:26:10;1.55;;;1.15;;
12177;SDS011;6152;48.728;9.256;2022-08-01T06:28:36;1.33;;;1.17;;
12177;SDS011;6152;48.728;9.256;2022-08-01T06:31:03;1.73;;;1.10;;
12177;SDS011;6152;48.728;9.256;2022-08-01T06:33:29;2.47;;;1.35;;
12177;SDS011;6152;48.728;9.256;2022-08-01T06:35:56;2.60;;;1.02;;
12177;SDS011;6152;48.728;9.256;2022-08-01T06:38:22;1.00;;;0.90;;
12177;SDS011;6152;48.728;9.256;2022-08-01T06:40:49;1.52;;;1.00;;
12177;SDS011;6152;48.728;9.256;2022-08-01T06:43:15;1.73;;;0.98;;
12177;SDS011;6152;48.728;9.256;2022-08-01T06:45:41;0.90;;;0.88;;
12177;SDS011;6152;48.728;9.256;2022-08-01T06:48:07;2.13;;;0.88;;
12177;SDS011;6152;48.728;9.256;2022-08-01T06:50:34;0.70;;;0.70;;
12177;SDS011;6152;48.728;9.256;2022-08-01T06:53:01;1.30;;;0.73;;
12177;SDS011;6152;48.728;9.256;2022-08-01T06:55:27;1.77;;;0.80;;
12177;SDS011;6152;48.728;9.256;2022-08-01T06:57:53;1.77;;;0.90;;
12177;SDS011;6152;48.728;9.256;2022-08-01T07:00:21;1.50;;;0.80;;
12177;SDS011;6152;48.728;9.256;2022-08-01T07:02:49;3.20;;;0.90;;
12177;SDS011;6152;48.728;9.256;2022-08-01T07:05:16;1.17;;;0.63;;
12177;SDS011;6152;48.728;9.256;2022-08-01T07:07:45;0.73;;;0.73;;
12177;SDS011;6152;48.728;9.256;2022-08-01T07:10:12;1.00;;;0.90;;
12177;SDS011;6152;48.728;9.256;2022-08-01T07:12:38;1.23;;;1.10;;
12177;SDS011;6152;48.728;9.256;2022-08-01T07:15:06;1.30;;;0.70;;
12177;SDS011;6152;48.728;9.256;2022-08-01T07:17:37;0.60;;;0.60;;
12177;SDS011;6152;48.728;9.256;2022-08-01T07:20:07;0.80;;;0.80;;
12177;SDS011;6152;48.728;9.256;2022-08-01T07:22:36;0.63;;;0.63;;
12177;SDS011;6152;48.728;9.256;2022-08-01T07:25:03;0.70;;;0.70;;
12177;SDS011;6152;48.728;9.256;2022-08-01T07:27:30;0.95;;;0.80;;
12177;SDS011;6152;48.728;9.256;2022-08-01T07:29:57;3.17;;;1.08;;
12177;SDS011;6152;48.728;9.256;2022-08-01T07:32:24;2.50;;;0.73;;
12177;SDS011;6152;48.728;9.256;2022-08-01T07:34:50;1.83;;;0.82;;
12177;SDS011;6152;48.728;9.256;2022-08-01T07:37:17;0.60;;;0.60;;
12177;SDS011;6152;48.728;9.256;2022-08-01T07:39:43;1.02;;;0.80;;
12177;SDS011;6152;48.728;9.256;2022-08-01T07:42:09;0.77;;;0.77;;
12177;SDS011;6152;48.728;9.256;2022-08-01T07:44:35;1.73;;;0.90;;
12177;SDS011;6152;48.728;9.256;2022-08-01T07:47:02;0.98;;;0.88;;
12177;SDS011;6152;48.728;9.256;2022-08-01T07:49:28;0.85;;;0.82;;
12177;SDS011;6152;48.728;9.256;2022-08-01T07:51:55;1.92;;;0.82;;
12177;SDS011;6152;48.728;9.256;2022-08-01T07:54:21;1.95;;;1.05;;
12177;SDS011;6152;48.728;9.256;2022-08-01T07:56:49;1.13;;;0.80;;
12177;SDS011;6152;48.728;9.256;2022-08-01T07:59:15;0.75;;;0.70;;
12177;SDS011;6152;48.728;9.256;2022-08-01T08:01:47;0.95;;;0.95;;
12177;SDS011;6152;48.728;9.256;2022-08-01T08:04:15;0.85;;;0.85;;
12177;SDS011;6152;48.728;9.256;2022-08-01T08:06:45;1.55;;;0.98;;
12177;SDS011;6152;48.728;9.256;2022-08-01T08:09:12;2.33;;;1.10;;
12177;SDS011;6152;48.728;9.256;2022-08-01T08:11:39;1.75;;;1.00;;
12177;SDS011;6152;48.728;9.256;2022-08-01T08:14:08;1.73;;;0.98;;
12177;SDS011;6152;48.728;9.256;2022-08-01T08:16:34;1.50;;;1.38;;
12177;SDS011;6152;48.728;9.256;2022-08-01T08:19:01;1.95;;;1.20;;
12177;SDS011;6152;48.728;9.256;2022-08-01T08:21:27;1.25;;;1.15;;
12177;SDS011;6152;48.728;9.256;2022-08-01T08:23:53;1.80;;;1.65;;
12177;SDS011;6152;48.728;9.256;2022-08-01T08:26:38;1.35;;;1.15;;
12177;SDS011;6152;48.728;9.256;2022-08-01T08:29:04;1.08;;;1.08;;
12177;SDS011;6152;48.728;9.256;2022-08-01T08:31:30;2.25;;;1.52;;
12177;SDS011;6152;48.728;9.256;2022-08-01T08:33:56;1.40;;;1.33;;
12177;SDS011;6152;48.728;9.256;2022-08-01T08:36:23;1.60;;;1.40;;
12177;SDS011;6152;48.728;9.256;2022-08-01T08:38:49;2.45;;;1.17;;
12177;SDS011;6152;48.728;9.256;2022-08-01T08:41:15;1.23;;;1.17;;
12177;SDS011;6152;48.728;9.256;2022-08-01T08:43:42;1.10;;;1.00;;
12177;SDS011;6152;48.728;9.256;2022-08-01T08:46:08;1.95;;;1.42;;
12177;SDS011;6152;48.728;9.256;2022-08-01T08:48:36;1.15;;;1.10;;
12177;SDS011;6152;48.728;9.256;2022-08-01T08:51:05;1.58;;;1.48;;
12177;SDS011;6152;48.728;9.256;2022-08-01T08:53:34;2.60;;;1.48;;
12177;SDS011;6152;48.728;9.256;2022-08-01T08:56:01;1.55;;;1.45;;
12177;SDS011;6152;48.728;9.256;2022-08-01T08:58:28;1.83;;;1.65;;
12177;SDS011;6152;48.728;9.256;2022-08-01T09:00:59;1.35;;;1.25;;
12177;SDS011;6152;48.728;9.256;2022-08-01T09:03:25;2.20;;;1.80;;
12177;SDS011;6152;48.728;9.256;2022-08-01T09:05:51;1.65;;;1.55;;
12177;SDS011;6152;48.728;9.256;2022-08-01T09:08:17;1.55;;;1.45;;
12177;SDS011;6152;48.728;9.256;2022-08-01T09:10:44;1.88;;;1.63;;
12177;SDS011;6152;48.728;9.256;2022-08-01T09:13:13;1.40;;;1.30;;
12177;SDS011;6152;48.728;9.256;2022-08-01T09:15:40;1.65;;;1.27;;
12177;SDS011;6152;48.728;9.256;2022-08-01T09:18:33;1.70;;;1.60;;
12177;SDS011;6152;48.728;9.256;2022-08-01T09:23:37;1.83;;;1.67;;
12177;SDS011;6152;48.728;9.256;2022-08-01T09:26:07;1.80;;;1.70;;
12177;SDS011;6152;48.728;9.256;2022-08-01T09:28:34;1.80;;;1.70;;
12177;SDS011;6152;48.728;9.256;2022-08-01T09:31:11;1.88;;;1.70;;
12177;SDS011;6152;48.728;9.256;2022-08-01T09:33:57;1.77;;;1.67;;
12177;SDS011;6152;48.728;9.256;2022-08-01T09:36:43;2.42;;;1.70;;
12177;SDS011;6152;48.728;9.256;2022-08-01T09:39:17;2.08;;;1.88;;
12177;SDS011;6152;48.728;9.256;2022-08-01T09:41:44;1.98;;;1.88;;
12177;SDS011;6152;48.728;9.256;2022-08-01T09:44:11;4.32;;;2.10;;
12177;SDS011;6152;48.728;9.256;2022-08-01T09:46:51;2.55;;;2.30;;
12177;SDS011;6152;48.728;9.256;2022-08-01T09:49:29;2.22;;;2.03;;
12177;SDS011;6152;48.728;9.256;2022-08-01T09:51:57;2.03;;;1.92;;
12177;SDS011;6152;48.728;9.256;2022-08-01T09:54:35;2.72;;;1.80;;
12177;SDS011;6152;48.728;9.256;2022-08-01T09:57:14;2.42;;;2.33;;
12177;SDS011;6152;48.728;9.256;2022-08-01T09:59:43;2.55;;;2.35;;
12177;SDS011;6152;48.728;9.256;2022-08-01T10:02:12;2.10;;;2.00;;
12177;SDS011;6152;48.728;9.256;2022-08-01T10:04:50;3.33;;;2.70;;
12177;SDS011;6152;48.728;9.256;2022-08-01T10:07:17;3.13;;;2.92;;
12177;SDS011;6152;48.728;9.256;2022-08-01T10:09:43;4.75;;;3.70;;
12177;SDS011;6152;48.728;9.256;2022-08-01T10:12:16;3.63;;;3.42;;
12177;SDS011;6152;48.728;9.256;2022-08-01T10:14:44;3.85;;;3.50;;
12177;SDS011;6152;48.728;9.256;2022-08-01T10:17:15;4.13;;;3.72;;
12177;SDS011;6152;48.728;9.256;2022-08-01T10:19:43;4.00;;;3.70;;
12177;SDS011;6152;48.728;9.256;2022-08-01T10:22:11;5.03;;;3.65;;
12177;SDS011;6152;48.728;9.256;2022-08-01T10:24:43;3.72;;;3.42;;
12177;SDS011;6152;48.728;9.256;2022-08-01T10:27:11;4.00;;;3.70;;
12177;SDS011;6152;48.728;9.256;2022-08-01T10:29:52;3.88;;;3.58;;
12177;SDS011;6152;48.728;9.256;2022-08-01T10:32:22;4.00;;;3.70;;
12177;SDS011;6152;48.728;9.256;2022-08-01T10:34:49;3.65;;;3.45;;
12177;SDS011;6152;48.728;9.256;2022-08-01T10:37:15;3.60;;;3.30;;
12177;SDS011;6152;48.728;9.256;2022-08-01T10:39:42;3.40;;;3.20;;
12177;SDS011;6152;48.728;9.256;2022-08-01T10:42:11;3.13;;;2.95;;
12177;SDS011;6152;48.728;9.256;2022-08-01T10:44:38;3.38;;;3.08;;
12177;SDS011;6152;48.728;9.256;2022-08-01T10:47:09;3.17;;;2.97;;
12177;SDS011;6152;48.728;9.256;2022-08-01T10:49:53;2.80;;;2.70;;
12177;SDS011;6152;48.728;9.256;2022-08-01T10:52:29;2.92;;;2.70;;
12177;SDS011;6152;48.728;9.256;2022-08-01T10:55:06;2.60;;;2.47;;
12177;SDS011;6152;48.728;9.256;2022-08-01T10:57:44;3.33;;;2.95;;
12177;SDS011;6152;48.728;9.256;2022-08-01T11:00:18;2.90;;;2.70;;
12177;SDS011;6152;48.728;9.256;2022-08-01T11:02:57;3.15;;;2.95;;
12177;SDS011;6152;48.728;9.256;2022-08-01T11:05:26;2.72;;;2.53;;
12177;SDS011;6152;48.728;9.256;2022-08-01T11:07:55;2.83;;;2.65;;
12177;SDS011;6152;48.728;9.256;2022-08-01T11:13:06;3.78;;;2.40;;
12177;SDS011;6152;48.728;9.256;2022-08-01T11:15:36;2.17;;;2.08;;
12177;SDS011;6152;48.728;9.256;2022-08-01T11:18:49;2.00;;;1.90;;
12177;SDS011;6152;48.728;9.256;2022-08-01T11:20:56;3.30;;;2.03;;
12177;SDS011;6152;48.728;9.256;2022-08-01T11:23:27;3.72;;;1.95;;
12177;SDS011;6152;48.728;9.256;2022-08-01T11:28:21;1.83;;;1.73;;
12177;SDS011;6152;48.728;9.256;2022-08-01T11:30:50;2.22;;;1.88;;
12177;SDS011;6152;48.728;9.256;2022-08-01T11:54:45;2.33;;;2.13;;
12177;SDS011;6152;48.728;9.256;2022-08-01T11:57:14;2.20;;;2.10;;
12177;SDS011;6152;48.728;9.256;2022-08-01T12:00:15;2.20;;;2.05;;
12177;SDS011;6152;48.728;9.256;2022-08-01T12:02:43;2.58;;;1.88;;
12177;SDS011;6152;48.728;9.256;2022-08-01T12:05:20;2.25;;;2.15;;
12177;SDS011;6152;48.728;9.256;2022-08-01T12:07:49;2.47;;;1.92;;
12177;SDS011;6152;48.728;9.256;2022-08-01T12:10:17;2.47;;;2.00;;
12177;SDS011;6152;48.728;9.256;2022-08-01T12:15:24;2.33;;;2.13;;
12177;SDS011;6152;48.728;9.256;2022-08-01T12:17:56;2.83;;;2.63;;
12177;SDS011;6152;48.728;9.256;2022-08-01T12:20:25;2.08;;;1.70;;
12177;SDS011;6152;48.728;9.256;2022-08-01T12:22:53;2.17;;;1.95;;
12177;SDS011;6152;48.728;9.256;2022-08-01T12:25:20;1.98;;;1.83;;
12177;SDS011;6152;48.728;9.256;2022-08-01T12:27:47;3.50;;;1.80;;
12177;SDS011;6152;48.728;9.256;2022-08-01T12:30:15;1.90;;;1.80;;
12177;SDS011;6152;48.728;9.256;2022-08-01T12:32:44;1.40;;;1.40;;
12177;SDS011;6152;48.728;9.256;2022-08-01T12:35:16;1.90;;;1.80;;
12177;SDS011;6152;48.728;9.256;2022-08-01T12:37:50;3.90;;;1.92;;
12177;SDS011;6152;48.728;9.256;2022-08-01T12:40:26;1.90;;;1.80;;
12177;SDS011;6152;48.728;9.256;2022-08-01T12:42:58;1.60;;;1.50;;
12177;SDS011;6152;48.728;9.256;2022-08-01T12:45:34;2.40;;;1.90;;
12177;SDS011;6152;48.728;9.256;2022-08-01T12:48:05;1.63;;;1.52;;
12177;SDS011;6152;48.728;9.256;2022-08-01T12:50:34;2.28;;;2.08;;
12177;SDS011;6152;48.728;9.256;2022-08-01T12:53:03;1.98;;;1.88;;
12177;SDS011;6152;48.728;9.256;2022-08-01T12:55:29;2.28;;;2.10;;
12177;SDS011;6152;48.728;9.256;2022-08-01T12:58:08;2.40;;;1.77;;
12177;SDS011;6152;48.728;9.256;2022-08-01T13:00:36;1.70;;;1.60;;
12177;SDS011;6152;48.728;9.256;2022-08-01T13:03:09;1.50;;;1.35;;
12177;SDS011;6152;48.728;9.256;2022-08-01T13:08:18;1.83;;;1.73;;
12177;SDS011;6152;48.728;9.256;2022-08-01T13:10:50;1.98;;;1.65;;
12177;SDS011;6152;48.728;9.256;2022-08-01T13:13:24;3.63;;;1.80;;
12177;SDS011;6152;48.728;9.256;2022-08-01T13:16:05;1.70;;;1.60;;
12177;SDS011;6152;48.728;9.256;2022-08-01T13:18:33;1.70;;;1.60;;
12177;SDS011;6152;48.728;9.256;2022-08-01T13:21:13;2.83;;;1.60;;
12177;SDS011;6152;48.728;9.256;2022-08-01T13:29:12;1.98;;;1.55;;
12177;SDS011;6152;48.728;9.256;2022-08-01T13:31:40;1.77;;;1.67;;
12177;SDS011;6152;48.728;9.256;2022-08-01T13:34:07;2.38;;;1.80;;
12177;SDS011;6152;48.728;9.256;2022-08-01T13:36:34;1.90;;;1.60;;
12177;SDS011;6152;48.728;9.256;2022-08-01T13:39:00;1.52;;;1.42;;
12177;SDS011;6152;48.728;9.256;2022-08-01T13:41:46;1.42;;;1.30;;
12177;SDS011;6152;48.728;9.256;2022-08-01T13:44:12;3.92;;;1.63;;
12177;SDS011;6152;48.728;9.256;2022-08-01T13:46:39;1.52;;;1.27;;
12177;SDS011;6152;48.728;9.256;2022-08-01T13:49:07;1.98;;;1.48;;
12177;SDS011;6152;48.728;9.256;2022-08-01T13:51:34;3.13;;;1.88;;
12177;SDS011;6152;48.728;9.256;2022-08-01T13:54:02;2.30;;;1.90;;
12177;SDS011;6152;48.728;9.256;2022-08-01T13:56:29;1.60;;;1.48;;
12177;SDS011;6152;48.728;9.256;2022-08-01T13:58:56;2.20;;;1.40;;
12177;SDS011;6152;48.728;9.256;2022-08-01T14:01:22;1.13;;;1.13;;
12177;SDS011;6152;48.728;9.256;2022-08-01T14:03:49;2.03;;;1.52;;
12177;SDS011;6152;48.728;9.256;2022-08-01T14:06:16;2.42;;;1.67;;
12177;SDS011;6152;48.728;9.256;2022-08-01T14:08:43;1.50;;;1.40;;
12177;SDS011;6152;48.728;9.256;2022-08-01T14:11:10;2.72;;;1.30;;
12177;SDS011;6152;48.728;9.256;2022-08-01T14:13:36;1.83;;;1.15;;
12177;SDS011;6152;48.728;9.256;2022-08-01T14:16:04;1.25;;;1.25;;
12177;SDS011;6152;48.728;9.256;2022-08-01T14:18:31;2.35;;;1.30;;
12177;SDS011;6152;48.728;9.256;2022-08-01T14:20:57;1.27;;;1.20;;
12177;SDS011;6152;48.728;9.256;2022-08-01T14:23:23;1.15;;;1.00;;
12177;SDS011;6152;48.728;9.256;2022-08-01T14:25:49;1.30;;;1.20;;
12177;SDS011;6152;48.728;9.256;2022-08-01T14:28:15;1.20;;;1.20;;
12177;SDS011;6152;48.728;9.256;2022-08-01T14:30:42;1.95;;;1.30;;
12177;SDS011;6152;48.728;9.256;2022-08-01T14:33:08;1.70;;;1.42;;
12177;SDS011;6152;48.728;9.256;2022-08-01T14:35:35;1.85;;;1.40;;
12177;SDS011;6152;48.728;9.256;2022-08-01T14:38:02;1.25;;;1.25;;
12177;SDS011;6152;48.728;9.256;2022-08-01T14:40:28;3.15;;;1.48;;
12177;SDS011;6152;48.728;9.256;2022-08-01T14:42:54;1.45;;;1.35;;
12177;SDS011;6152;48.728;9.256;2022-08-01T14:45:21;1.50;;;1.40;;
12177;SDS011;6152;48.728;9.256;2022-08-01T14:47:47;2.30;;;1.40;;
12177;SDS011;6152;48.728;9.256;2022-08-01T14:50:13;1.10;;;1.08;;
12177;SDS011;6152;48.728;9.256;2022-08-01T14:52:40;3.05;;;1.30;;
12177;SDS011;6152;48.728;9.256;2022-08-01T14:55:08;3.10;;;1.30;;
12177;SDS011;6152;48.728;9.256;2022-08-01T14:57:35;1.10;;;1.10;;
12177;SDS011;6152;48.728;9.256;2022-08-01T15:00:04;3.03;;;1.30;;
12177;SDS011;6152;48.728;9.256;2022-08-01T15:02:32;1.77;;;1.50;;
12177;SDS011;6152;48.728;9.256;2022-08-01T15:04:58;2.05;;;1.50;;
12177;SDS011;6152;48.728;9.256;2022-08-01T15:07:24;1.30;;;1.20;;
12177;SDS011;6152;48.728;9.256;2022-08-01T15:09:51;1.48;;;1.38;;
12177;SDS011;6152;48.728;9.256;2022-08-01T15:12:17;1.92;;;1.50;;
12177;SDS011;6152;48.728;9.256;2022-08-01T15:14:44;1.20;;;1.15;;
12177;SDS011;6152;48.728;9.256;2022-08-01T15:17:20;1.50;;;1.27;;
12177;SDS011;6152;48.728;9.256;2022-08-01T15:19:52;2.72;;;1.38;;
12177;SDS011;6152;48.728;9.256;2022-08-01T15:22:22;1.27;;;1.17;;
12177;SDS011;6152;48.728;9.256;2022-08-01T15:24:50;1.40;;;1.30;;
12177;SDS011;6152;48.728;9.256;2022-08-01T15:27:18;1.00;;;1.00;;
12177;SDS011;6152;48.728;9.256;2022-08-01T15:29:45;2.22;;;1.30;;
12177;SDS011;6152;48.728;9.256;2022-08-01T15:32:12;1.40;;;1.30;;
12177;SDS011;6152;48.728;9.256;2022-08-01T15:34:39;1.55;;;1.42;;
12177;SDS011;6152;48.728;9.256;2022-08-01T15:37:06;1.38;;;1.20;;
12177;SDS011;6152;48.728;9.256;2022-08-01T15:39:33;1.60;;;1.50;;
12177;SDS011;6152;48.728;9.256;2022-08-01T15:42:02;0.98;;;0.98;;
12177;SDS011;6152;48.728;9.256;2022-08-01T15:44:37;1.40;;;1.30;;
12177;SDS011;6152;48.728;9.256;2022-08-01T15:47:05;1.17;;;1.08;;
12177;SDS011;6152;48.728;9.256;2022-08-01T15:49:32;1.30;;;1.20;;
12177;SDS011;6152;48.728;9.256;2022-08-01T15:52:00;1.42;;;1.33;;
12177;SDS011;6152;48.728;9.256;2022-08-01T15:54:31;1.23;;;1.13;;
12177;SDS011;6152;48.728;9.256;2022-08-01T15:56:58;2.88;;;1.10;;
12177;SDS011;6152;48.728;9.256;2022-08-01T15:59:24;1.35;;;1.27;;
12177;SDS011;6152;48.728;9.256;2022-08-01T16:01:51;1.20;;;1.10;;
12177;SDS011;6152;48.728;9.256;2022-08-01T16:04:17;2.25;;;1.50;;